sensor_id;sensor_type;location;lat;lon;timestamp;P1;durP1;ratioP1;P2;durP2;ratioP2
19107;SDS011;9686;48.832;9.126;2023-02-21T00:01:06;7.47;;;4.53;;
19107;SDS011;9686;48.832;9.126;2023-02-21T00:03:50;6.47;;;4.17;;
19107;SDS011;9686;48.832;9.126;2023-02-21T00:06:34;6.90;;;4.03;;
19107;SDS011;9686;48.832;9.126;2023-02-21T00:09:17;7.67;;;4.03;;
19107;SDS011;9686;48.832;9.126;2023-02-21T00:12:01;7.83;;;3.77;;
19107;SDS011;9686;48.832;9.126;2023-02-21T00:14:45;6.27;;;3.90;;
19107;SDS011;9686;48.832;9.126;2023-02-21T00:17:29;7.57;;;3.70;;
19107;SDS011;9686;48.832;9.126;2023-02-21T00:20:13;6.37;;;4.30;;
19107;SDS011;9686;48.832;9.126;2023-02-21T00:22:57;7.97;;;4.47;;
19107;SDS011;9686;48.832;9.126;2023-02-21T00:25:41;6.03;;;3.73;;
19107;SDS011;9686;48.832;9.126;2023-02-21T00:28:25;7.57;;;4.47;;
19107;SDS011;9686;48.832;9.126;2023-02-21T00:31:09;6.90;;;4.20;;
19107;SDS011;9686;48.832;9.126;2023-02-21T00:33:52;6.03;;;3.73;;
19107;SDS011;9686;48.832;9.126;2023-02-21T00:36:36;8.47;;;3.80;;
19107;SDS011;9686;48.832;9.126;2023-02-21T00:39:20;6.60;;;3.60;;
19107;SDS011;9686;48.832;9.126;2023-02-21T00:42:04;4.63;;;3.63;;
19107;SDS011;9686;48.832;9.126;2023-02-21T00:44:48;9.07;;;4.77;;
19107;SDS011;9686;48.832;9.126;2023-02-21T00:47:32;8.73;;;5.33;;
19107;SDS011;9686;48.832;9.126;2023-02-21T00:50:16;6.40;;;3.93;;
19107;SDS011;9686;48.832;9.126;2023-02-21T00:53:00;6.47;;;3.93;;
19107;SDS011;9686;48.832;9.126;2023-02-21T00:55:44;6.53;;;4.07;;
19107;SDS011;9686;48.832;9.126;2023-02-21T00:58:28;6.87;;;3.70;;
19107;SDS011;9686;48.832;9.126;2023-02-21T01:01:12;5.57;;;3.87;;
19107;SDS011;9686;48.832;9.126;2023-02-21T01:03:59;12.80;;;4.40;;
19107;SDS011;9686;48.832;9.126;2023-02-21T01:06:43;7.43;;;3.93;;
19107;SDS011;9686;48.832;9.126;2023-02-21T01:09:27;7.77;;;3.77;;
19107;SDS011;9686;48.832;9.126;2023-02-21T01:14:39;5.67;;;3.93;;
19107;SDS011;9686;48.832;9.126;2023-02-21T01:17:22;6.63;;;4.07;;
19107;SDS011;9686;48.832;9.126;2023-02-21T01:20:07;6.47;;;3.60;;
19107;SDS011;9686;48.832;9.126;2023-02-21T01:22:50;5.10;;;3.67;;
19107;SDS011;9686;48.832;9.126;2023-02-21T01:25:34;9.30;;;4.20;;
19107;SDS011;9686;48.832;9.126;2023-02-21T01:28:18;6.20;;;4.13;;
19107;SDS011;9686;48.832;9.126;2023-02-21T01:31:02;6.13;;;3.70;;
19107;SDS011;9686;48.832;9.126;2023-02-21T01:33:46;7.57;;;3.67;;
19107;SDS011;9686;48.832;9.126;2023-02-21T01:36:30;5.60;;;3.70;;
19107;SDS011;9686;48.832;9.126;2023-02-21T01:39:14;5.20;;;3.83;;
19107;SDS011;9686;48.832;9.126;2023-02-21T01:41:57;6.93;;;3.80;;
19107;SDS011;9686;48.832;9.126;2023-02-21T01:44:43;7.37;;;3.93;;
19107;SDS011;9686;48.832;9.126;2023-02-21T01:47:28;7.53;;;4.50;;
19107;SDS011;9686;48.832;9.126;2023-02-21T01:50:27;10.83;;;3.83;;
19107;SDS011;9686;48.832;9.126;2023-02-21T01:53:18;5.97;;;3.33;;
19107;SDS011;9686;48.832;9.126;2023-02-21T01:56:05;3.63;;;2.80;;
19107;SDS011;9686;48.832;9.126;2023-02-21T01:58:50;4.73;;;3.07;;
19107;SDS011;9686;48.832;9.126;2023-02-21T02:01:38;5.93;;;3.47;;
19107;SDS011;9686;48.832;9.126;2023-02-21T02:04:28;5.87;;;3.60;;
19107;SDS011;9686;48.832;9.126;2023-02-21T02:07:14;5.20;;;3.33;;
19107;SDS011;9686;48.832;9.126;2023-02-21T02:09:58;3.90;;;2.97;;
19107;SDS011;9686;48.832;9.126;2023-02-21T02:26:53;4.00;;;2.77;;
19107;SDS011;9686;48.832;9.126;2023-02-21T02:35:30;7.60;;;2.90;;
19107;SDS011;9686;48.832;9.126;2023-02-21T02:43:28;6.13;;;2.80;;
19107;SDS011;9686;48.832;9.126;2023-02-21T02:48:36;7.83;;;3.10;;
19107;SDS011;9686;48.832;9.126;2023-02-21T02:51:06;9.37;;;3.27;;
19107;SDS011;9686;48.832;9.126;2023-02-21T02:53:33;6.20;;;3.57;;
19107;SDS011;9686;48.832;9.126;2023-02-21T02:56:01;4.43;;;2.30;;
19107;SDS011;9686;48.832;9.126;2023-02-21T02:58:29;6.93;;;2.87;;
19107;SDS011;9686;48.832;9.126;2023-02-21T03:01:08;12.43;;;3.47;;
19107;SDS011;9686;48.832;9.126;2023-02-21T03:06:45;9.33;;;3.07;;
19107;SDS011;9686;48.832;9.126;2023-02-21T03:09:18;6.67;;;2.70;;
19107;SDS011;9686;48.832;9.126;2023-02-21T03:11:55;5.97;;;3.20;;
19107;SDS011;9686;48.832;9.126;2023-02-21T03:14:28;5.90;;;2.90;;
19107;SDS011;9686;48.832;9.126;2023-02-21T03:17:01;7.53;;;3.67;;
19107;SDS011;9686;48.832;9.126;2023-02-21T03:19:32;6.23;;;2.97;;
19107;SDS011;9686;48.832;9.126;2023-02-21T03:22:03;8.60;;;3.00;;
19107;SDS011;9686;48.832;9.126;2023-02-21T03:24:32;7.50;;;3.00;;
19107;SDS011;9686;48.832;9.126;2023-02-21T03:27:02;7.47;;;2.77;;
19107;SDS011;9686;48.832;9.126;2023-02-21T03:29:31;7.37;;;3.73;;
19107;SDS011;9686;48.832;9.126;2023-02-21T03:32:14;4.23;;;2.23;;
19107;SDS011;9686;48.832;9.126;2023-02-21T03:34:52;4.90;;;2.80;;
19107;SDS011;9686;48.832;9.126;2023-02-21T03:37:27;3.27;;;2.87;;
19107;SDS011;9686;48.832;9.126;2023-02-21T03:39:54;7.47;;;2.77;;
19107;SDS011;9686;48.832;9.126;2023-02-21T03:42:19;7.10;;;3.00;;
19107;SDS011;9686;48.832;9.126;2023-02-21T03:44:45;7.03;;;2.80;;
19107;SDS011;9686;48.832;9.126;2023-02-21T03:47:10;4.53;;;2.43;;
19107;SDS011;9686;48.832;9.126;2023-02-21T03:49:35;6.80;;;3.00;;
19107;SDS011;9686;48.832;9.126;2023-02-21T03:52:01;7.57;;;3.40;;
19107;SDS011;9686;48.832;9.126;2023-02-21T03:54:26;5.47;;;3.13;;
19107;SDS011;9686;48.832;9.126;2023-02-21T03:56:51;4.17;;;3.03;;
19107;SDS011;9686;48.832;9.126;2023-02-21T03:59:17;9.37;;;3.23;;
19107;SDS011;9686;48.832;9.126;2023-02-21T04:01:42;5.20;;;2.50;;
19107;SDS011;9686;48.832;9.126;2023-02-21T04:04:08;5.50;;;2.80;;
19107;SDS011;9686;48.832;9.126;2023-02-21T04:06:33;4.67;;;2.73;;
19107;SDS011;9686;48.832;9.126;2023-02-21T04:08:58;6.90;;;3.27;;
19107;SDS011;9686;48.832;9.126;2023-02-21T04:11:23;6.80;;;2.67;;
19107;SDS011;9686;48.832;9.126;2023-02-21T04:13:49;7.23;;;2.90;;
19107;SDS011;9686;48.832;9.126;2023-02-21T04:16:14;6.43;;;2.70;;
19107;SDS011;9686;48.832;9.126;2023-02-21T04:18:39;6.87;;;3.27;;
19107;SDS011;9686;48.832;9.126;2023-02-21T04:21:05;5.40;;;2.63;;
19107;SDS011;9686;48.832;9.126;2023-02-21T04:23:30;4.73;;;2.87;;
19107;SDS011;9686;48.832;9.126;2023-02-21T04:25:55;7.33;;;2.80;;
19107;SDS011;9686;48.832;9.126;2023-02-21T04:28:21;4.43;;;2.60;;
19107;SDS011;9686;48.832;9.126;2023-02-21T04:30:46;4.20;;;2.30;;
19107;SDS011;9686;48.832;9.126;2023-02-21T04:33:11;4.47;;;2.40;;
19107;SDS011;9686;48.832;9.126;2023-02-21T04:35:37;4.17;;;2.63;;
19107;SDS011;9686;48.832;9.126;2023-02-21T04:38:02;4.37;;;2.60;;
19107;SDS011;9686;48.832;9.126;2023-02-21T04:40:27;5.23;;;2.50;;
19107;SDS011;9686;48.832;9.126;2023-02-21T04:42:53;6.07;;;2.33;;
19107;SDS011;9686;48.832;9.126;2023-02-21T04:45:18;5.03;;;2.60;;
19107;SDS011;9686;48.832;9.126;2023-02-21T04:47:43;4.30;;;2.30;;
19107;SDS011;9686;48.832;9.126;2023-02-21T04:50:09;5.07;;;2.50;;
19107;SDS011;9686;48.832;9.126;2023-02-21T04:52:34;4.07;;;2.50;;
19107;SDS011;9686;48.832;9.126;2023-02-21T04:54:59;4.83;;;2.87;;
19107;SDS011;9686;48.832;9.126;2023-02-21T04:57:24;4.73;;;2.20;;
19107;SDS011;9686;48.832;9.126;2023-02-21T04:59:57;3.87;;;2.47;;
19107;SDS011;9686;48.832;9.126;2023-02-21T05:02:23;3.93;;;2.30;;
19107;SDS011;9686;48.832;9.126;2023-02-21T05:04:50;6.20;;;2.60;;
19107;SDS011;9686;48.832;9.126;2023-02-21T05:07:15;4.87;;;2.30;;
19107;SDS011;9686;48.832;9.126;2023-02-21T05:09:41;4.23;;;2.33;;
19107;SDS011;9686;48.832;9.126;2023-02-21T05:12:06;4.70;;;2.60;;
19107;SDS011;9686;48.832;9.126;2023-02-21T05:14:36;5.07;;;2.77;;
19107;SDS011;9686;48.832;9.126;2023-02-21T05:17:03;3.57;;;2.53;;
19107;SDS011;9686;48.832;9.126;2023-02-21T05:19:29;3.87;;;2.20;;
19107;SDS011;9686;48.832;9.126;2023-02-21T05:21:55;4.50;;;2.80;;
19107;SDS011;9686;48.832;9.126;2023-02-21T05:24:22;6.33;;;2.43;;
19107;SDS011;9686;48.832;9.126;2023-02-21T05:26:48;9.97;;;2.70;;
19107;SDS011;9686;48.832;9.126;2023-02-21T05:29:14;4.37;;;2.87;;
19107;SDS011;9686;48.832;9.126;2023-02-21T05:31:40;8.23;;;3.10;;
19107;SDS011;9686;48.832;9.126;2023-02-21T05:34:05;4.70;;;2.70;;
19107;SDS011;9686;48.832;9.126;2023-02-21T05:36:31;4.43;;;2.57;;
19107;SDS011;9686;48.832;9.126;2023-02-21T05:38:56;5.50;;;2.87;;
19107;SDS011;9686;48.832;9.126;2023-02-21T05:41:21;4.30;;;2.87;;
19107;SDS011;9686;48.832;9.126;2023-02-21T05:43:48;4.53;;;2.90;;
19107;SDS011;9686;48.832;9.126;2023-02-21T05:46:18;3.97;;;2.83;;
19107;SDS011;9686;48.832;9.126;2023-02-21T05:48:45;5.70;;;2.93;;
19107;SDS011;9686;48.832;9.126;2023-02-21T05:51:11;4.23;;;2.80;;
19107;SDS011;9686;48.832;9.126;2023-02-21T05:53:36;6.30;;;3.13;;
19107;SDS011;9686;48.832;9.126;2023-02-21T05:56:01;6.67;;;3.43;;
19107;SDS011;9686;48.832;9.126;2023-02-21T05:58:27;5.77;;;2.77;;
19107;SDS011;9686;48.832;9.126;2023-02-21T06:00:52;8.43;;;3.40;;
19107;SDS011;9686;48.832;9.126;2023-02-21T06:03:17;4.03;;;2.70;;
19107;SDS011;9686;48.832;9.126;2023-02-21T06:05:42;5.30;;;3.33;;
19107;SDS011;9686;48.832;9.126;2023-02-21T06:08:08;9.20;;;3.97;;
19107;SDS011;9686;48.832;9.126;2023-02-21T06:10:34;7.57;;;3.67;;
19107;SDS011;9686;48.832;9.126;2023-02-21T06:12:59;8.83;;;4.37;;
19107;SDS011;9686;48.832;9.126;2023-02-21T06:15:24;5.03;;;3.63;;
19107;SDS011;9686;48.832;9.126;2023-02-21T06:17:50;7.63;;;3.70;;
19107;SDS011;9686;48.832;9.126;2023-02-21T06:20:15;5.60;;;4.03;;
19107;SDS011;9686;48.832;9.126;2023-02-21T06:22:40;4.97;;;3.67;;
19107;SDS011;9686;48.832;9.126;2023-02-21T06:25:06;5.60;;;3.80;;
19107;SDS011;9686;48.832;9.126;2023-02-21T06:27:32;11.33;;;3.87;;
19107;SDS011;9686;48.832;9.126;2023-02-21T06:29:57;8.90;;;4.00;;
19107;SDS011;9686;48.832;9.126;2023-02-21T06:32:23;7.47;;;3.80;;
19107;SDS011;9686;48.832;9.126;2023-02-21T06:34:48;6.03;;;3.27;;
19107;SDS011;9686;48.832;9.126;2023-02-21T06:37:13;5.07;;;3.60;;
19107;SDS011;9686;48.832;9.126;2023-02-21T06:39:39;6.30;;;3.80;;
19107;SDS011;9686;48.832;9.126;2023-02-21T06:42:04;14.13;;;3.97;;
19107;SDS011;9686;48.832;9.126;2023-02-21T06:44:30;6.37;;;3.37;;
19107;SDS011;9686;48.832;9.126;2023-02-21T06:46:56;9.13;;;3.77;;
19107;SDS011;9686;48.832;9.126;2023-02-21T06:49:21;10.87;;;3.80;;
19107;SDS011;9686;48.832;9.126;2023-02-21T06:51:46;9.83;;;3.50;;
19107;SDS011;9686;48.832;9.126;2023-02-21T06:54:11;8.83;;;4.20;;
19107;SDS011;9686;48.832;9.126;2023-02-21T06:56:37;8.57;;;3.80;;
19107;SDS011;9686;48.832;9.126;2023-02-21T06:59:03;7.13;;;4.37;;
19107;SDS011;9686;48.832;9.126;2023-02-21T07:01:29;7.17;;;3.37;;
19107;SDS011;9686;48.832;9.126;2023-02-21T07:03:55;11.43;;;3.97;;
19107;SDS011;9686;48.832;9.126;2023-02-21T07:06:21;6.67;;;3.70;;
19107;SDS011;9686;48.832;9.126;2023-02-21T07:08:47;5.23;;;3.83;;
19107;SDS011;9686;48.832;9.126;2023-02-21T07:11:12;7.17;;;3.93;;
19107;SDS011;9686;48.832;9.126;2023-02-21T07:13:39;6.60;;;4.00;;
19107;SDS011;9686;48.832;9.126;2023-02-21T07:16:04;6.27;;;3.70;;
19107;SDS011;9686;48.832;9.126;2023-02-21T07:18:30;6.00;;;3.67;;
19107;SDS011;9686;48.832;9.126;2023-02-21T07:20:55;5.47;;;4.00;;
19107;SDS011;9686;48.832;9.126;2023-02-21T07:23:21;8.40;;;4.13;;
19107;SDS011;9686;48.832;9.126;2023-02-21T07:25:46;8.20;;;3.67;;
19107;SDS011;9686;48.832;9.126;2023-02-21T07:28:12;9.50;;;4.67;;
19107;SDS011;9686;48.832;9.126;2023-02-21T07:30:37;8.67;;;4.40;;
19107;SDS011;9686;48.832;9.126;2023-02-21T07:33:03;12.30;;;8.77;;
19107;SDS011;9686;48.832;9.126;2023-02-21T07:35:28;7.07;;;4.30;;
19107;SDS011;9686;48.832;9.126;2023-02-21T07:37:53;7.30;;;4.90;;
19107;SDS011;9686;48.832;9.126;2023-02-21T07:40:19;10.97;;;4.53;;
19107;SDS011;9686;48.832;9.126;2023-02-21T07:42:44;8.50;;;4.33;;
19107;SDS011;9686;48.832;9.126;2023-02-21T07:45:11;7.13;;;4.27;;
19107;SDS011;9686;48.832;9.126;2023-02-21T07:47:38;7.23;;;4.07;;
19107;SDS011;9686;48.832;9.126;2023-02-21T07:50:03;8.50;;;4.53;;
19107;SDS011;9686;48.832;9.126;2023-02-21T07:52:29;5.07;;;3.87;;
19107;SDS011;9686;48.832;9.126;2023-02-21T07:54:54;9.67;;;4.63;;
19107;SDS011;9686;48.832;9.126;2023-02-21T07:57:20;6.20;;;4.37;;
19107;SDS011;9686;48.832;9.126;2023-02-21T07:59:46;6.63;;;4.17;;
19107;SDS011;9686;48.832;9.126;2023-02-21T08:02:12;7.73;;;4.23;;
19107;SDS011;9686;48.832;9.126;2023-02-21T08:04:38;6.77;;;4.43;;
19107;SDS011;9686;48.832;9.126;2023-02-21T08:07:04;6.97;;;4.37;;
19107;SDS011;9686;48.832;9.126;2023-02-21T08:09:29;12.17;;;4.67;;
19107;SDS011;9686;48.832;9.126;2023-02-21T08:11:55;10.20;;;4.90;;
19107;SDS011;9686;48.832;9.126;2023-02-21T08:14:20;9.53;;;3.90;;
19107;SDS011;9686;48.832;9.126;2023-02-21T08:16:45;8.93;;;3.73;;
19107;SDS011;9686;48.832;9.126;2023-02-21T08:19:11;5.57;;;4.13;;
19107;SDS011;9686;48.832;9.126;2023-02-21T08:21:36;7.77;;;4.27;;
19107;SDS011;9686;48.832;9.126;2023-02-21T08:24:01;5.70;;;4.00;;
19107;SDS011;9686;48.832;9.126;2023-02-21T08:26:27;7.50;;;3.97;;
19107;SDS011;9686;48.832;9.126;2023-02-21T08:28:53;9.27;;;4.10;;
19107;SDS011;9686;48.832;9.126;2023-02-21T08:31:18;6.67;;;4.03;;
19107;SDS011;9686;48.832;9.126;2023-02-21T08:33:44;9.27;;;4.17;;
19107;SDS011;9686;48.832;9.126;2023-02-21T08:36:09;7.47;;;4.10;;
19107;SDS011;9686;48.832;9.126;2023-02-21T08:38:35;6.57;;;4.53;;
19107;SDS011;9686;48.832;9.126;2023-02-21T08:41:00;10.43;;;4.17;;
19107;SDS011;9686;48.832;9.126;2023-02-21T08:43:26;8.33;;;3.87;;
19107;SDS011;9686;48.832;9.126;2023-02-21T08:45:52;6.07;;;3.60;;
19107;SDS011;9686;48.832;9.126;2023-02-21T08:48:18;8.27;;;4.70;;
19107;SDS011;9686;48.832;9.126;2023-02-21T08:50:43;10.67;;;4.63;;
19107;SDS011;9686;48.832;9.126;2023-02-21T08:53:10;9.33;;;4.77;;
19107;SDS011;9686;48.832;9.126;2023-02-21T08:55:37;10.97;;;4.67;;
19107;SDS011;9686;48.832;9.126;2023-02-21T08:58:02;9.87;;;4.93;;
19107;SDS011;9686;48.832;9.126;2023-02-21T09:00:28;11.80;;;5.30;;
19107;SDS011;9686;48.832;9.126;2023-02-21T09:02:53;8.80;;;4.60;;
19107;SDS011;9686;48.832;9.126;2023-02-21T09:05:21;9.37;;;4.60;;
19107;SDS011;9686;48.832;9.126;2023-02-21T09:07:49;8.53;;;4.57;;
19107;SDS011;9686;48.832;9.126;2023-02-21T09:10:16;11.53;;;4.20;;
19107;SDS011;9686;48.832;9.126;2023-02-21T09:12:42;7.67;;;4.73;;
19107;SDS011;9686;48.832;9.126;2023-02-21T09:15:07;7.67;;;4.87;;
19107;SDS011;9686;48.832;9.126;2023-02-21T09:17:33;7.83;;;4.80;;
19107;SDS011;9686;48.832;9.126;2023-02-21T09:20:05;7.27;;;4.40;;
19107;SDS011;9686;48.832;9.126;2023-02-21T09:22:33;8.17;;;4.70;;
19107;SDS011;9686;48.832;9.126;2023-02-21T09:24:58;5.63;;;4.13;;
19107;SDS011;9686;48.832;9.126;2023-02-21T09:27:26;5.93;;;4.37;;
19107;SDS011;9686;48.832;9.126;2023-02-21T09:30:04;6.93;;;4.33;;
19107;SDS011;9686;48.832;9.126;2023-02-21T09:32:31;5.77;;;4.30;;
19107;SDS011;9686;48.832;9.126;2023-02-21T09:34:57;9.50;;;3.90;;
19107;SDS011;9686;48.832;9.126;2023-02-21T09:37:22;6.70;;;3.60;;
19107;SDS011;9686;48.832;9.126;2023-02-21T09:39:48;7.67;;;4.03;;
19107;SDS011;9686;48.832;9.126;2023-02-21T09:42:15;5.33;;;3.67;;
19107;SDS011;9686;48.832;9.126;2023-02-21T09:44:42;6.60;;;3.53;;
19107;SDS011;9686;48.832;9.126;2023-02-21T09:47:09;8.07;;;3.90;;
19107;SDS011;9686;48.832;9.126;2023-02-21T09:49:41;7.60;;;3.67;;
19107;SDS011;9686;48.832;9.126;2023-02-21T09:52:24;3.60;;;2.83;;
19107;SDS011;9686;48.832;9.126;2023-02-21T09:54:56;7.97;;;3.43;;
19107;SDS011;9686;48.832;9.126;2023-02-21T09:57:23;6.10;;;3.03;;
19107;SDS011;9686;48.832;9.126;2023-02-21T09:59:49;7.97;;;3.30;;
19107;SDS011;9686;48.832;9.126;2023-02-21T10:02:29;4.50;;;3.17;;
19107;SDS011;9686;48.832;9.126;2023-02-21T10:05:17;9.77;;;3.30;;
19107;SDS011;9686;48.832;9.126;2023-02-21T10:13:04;5.00;;;3.00;;
19107;SDS011;9686;48.832;9.126;2023-02-21T10:18:28;5.03;;;2.70;;
19107;SDS011;9686;48.832;9.126;2023-02-21T10:21:00;5.53;;;2.47;;
19107;SDS011;9686;48.832;9.126;2023-02-21T10:23:39;2.63;;;1.77;;
19107;SDS011;9686;48.832;9.126;2023-02-21T10:26:10;4.83;;;2.00;;
19107;SDS011;9686;48.832;9.126;2023-02-21T10:28:39;5.87;;;2.67;;
19107;SDS011;9686;48.832;9.126;2023-02-21T10:31:10;4.87;;;2.30;;
19107;SDS011;9686;48.832;9.126;2023-02-21T10:33:42;4.83;;;2.40;;
19107;SDS011;9686;48.832;9.126;2023-02-21T10:36:11;4.27;;;2.50;;
19107;SDS011;9686;48.832;9.126;2023-02-21T10:38:38;6.67;;;3.07;;
19107;SDS011;9686;48.832;9.126;2023-02-21T10:41:07;4.50;;;2.63;;
19107;SDS011;9686;48.832;9.126;2023-02-21T10:43:38;5.57;;;2.77;;
19107;SDS011;9686;48.832;9.126;2023-02-21T10:46:09;3.30;;;2.33;;
19107;SDS011;9686;48.832;9.126;2023-02-21T10:48:47;4.10;;;2.60;;
19107;SDS011;9686;48.832;9.126;2023-02-21T10:51:17;4.70;;;2.70;;
19107;SDS011;9686;48.832;9.126;2023-02-21T10:53:54;3.70;;;2.70;;
19107;SDS011;9686;48.832;9.126;2023-02-21T10:56:42;4.43;;;3.13;;
19107;SDS011;9686;48.832;9.126;2023-02-21T10:59:08;4.63;;;3.03;;
19107;SDS011;9686;48.832;9.126;2023-02-21T11:01:43;5.33;;;3.03;;
19107;SDS011;9686;48.832;9.126;2023-02-21T11:06:45;6.97;;;3.43;;
19107;SDS011;9686;48.832;9.126;2023-02-21T11:12:22;6.20;;;2.70;;
19107;SDS011;9686;48.832;9.126;2023-02-21T11:17:22;3.63;;;2.77;;
19107;SDS011;9686;48.832;9.126;2023-02-21T11:22:42;5.70;;;2.83;;
19107;SDS011;9686;48.832;9.126;2023-02-21T11:28:23;5.03;;;3.00;;
19107;SDS011;9686;48.832;9.126;2023-02-21T11:33:24;7.17;;;2.87;;
19107;SDS011;9686;48.832;9.126;2023-02-21T11:35:50;11.33;;;3.00;;
19107;SDS011;9686;48.832;9.126;2023-02-21T11:41:02;4.07;;;2.60;;
19107;SDS011;9686;48.832;9.126;2023-02-21T11:43:43;3.77;;;2.57;;
19107;SDS011;9686;48.832;9.126;2023-02-21T11:46:29;3.37;;;2.43;;
19107;SDS011;9686;48.832;9.126;2023-02-21T11:51:58;6.83;;;2.83;;
19107;SDS011;9686;48.832;9.126;2023-02-21T11:54:28;6.87;;;2.67;;
19107;SDS011;9686;48.832;9.126;2023-02-21T12:00:01;5.80;;;2.47;;
19107;SDS011;9686;48.832;9.126;2023-02-21T12:13:42;6.27;;;3.03;;
19107;SDS011;9686;48.832;9.126;2023-02-21T12:22:26;4.30;;;2.40;;
19107;SDS011;9686;48.832;9.126;2023-02-21T12:25:04;5.27;;;2.60;;
19107;SDS011;9686;48.832;9.126;2023-02-21T12:27:55;6.00;;;2.93;;
19107;SDS011;9686;48.832;9.126;2023-02-21T12:33:06;6.90;;;2.63;;
19107;SDS011;9686;48.832;9.126;2023-02-21T12:44:16;3.37;;;2.53;;
19107;SDS011;9686;48.832;9.126;2023-02-21T12:49:14;2.93;;;2.10;;
19107;SDS011;9686;48.832;9.126;2023-02-21T12:52:27;4.23;;;2.30;;
19107;SDS011;9686;48.832;9.126;2023-02-21T12:54:44;5.00;;;2.97;;
19107;SDS011;9686;48.832;9.126;2023-02-21T12:57:11;3.27;;;2.10;;
19107;SDS011;9686;48.832;9.126;2023-02-21T13:02:41;4.13;;;2.07;;
19107;SDS011;9686;48.832;9.126;2023-02-21T13:05:18;6.67;;;2.27;;
19107;SDS011;9686;48.832;9.126;2023-02-21T13:10:21;3.70;;;2.13;;
19107;SDS011;9686;48.832;9.126;2023-02-21T13:13:01;3.43;;;2.43;;
19107;SDS011;9686;48.832;9.126;2023-02-21T13:15:33;5.67;;;2.13;;
19107;SDS011;9686;48.832;9.126;2023-02-21T13:18:09;5.20;;;2.37;;
19107;SDS011;9686;48.832;9.126;2023-02-21T13:20:46;3.77;;;1.90;;
19107;SDS011;9686;48.832;9.126;2023-02-21T13:23:40;5.63;;;2.30;;
19107;SDS011;9686;48.832;9.126;2023-02-21T13:28:39;2.90;;;2.20;;
19107;SDS011;9686;48.832;9.126;2023-02-21T13:31:09;4.90;;;2.13;;
19107;SDS011;9686;48.832;9.126;2023-02-21T13:33:50;3.40;;;2.10;;
19107;SDS011;9686;48.832;9.126;2023-02-21T13:41:36;3.97;;;1.70;;
19107;SDS011;9686;48.832;9.126;2023-02-21T13:44:05;5.37;;;1.80;;
19107;SDS011;9686;48.832;9.126;2023-02-21T13:52:22;3.93;;;1.90;;
19107;SDS011;9686;48.832;9.126;2023-02-21T14:08:18;1.90;;;1.37;;
19107;SDS011;9686;48.832;9.126;2023-02-21T14:13:40;2.23;;;1.40;;
19107;SDS011;9686;48.832;9.126;2023-02-21T14:24:00;6.93;;;1.60;;
19107;SDS011;9686;48.832;9.126;2023-02-21T14:26:44;1.40;;;1.30;;
19107;SDS011;9686;48.832;9.126;2023-02-21T14:39:38;3.00;;;1.47;;
19107;SDS011;9686;48.832;9.126;2023-02-21T14:42:29;1.97;;;1.40;;
19107;SDS011;9686;48.832;9.126;2023-02-21T14:47:38;2.87;;;1.33;;
19107;SDS011;9686;48.832;9.126;2023-02-21T15:01:20;2.40;;;1.47;;
19107;SDS011;9686;48.832;9.126;2023-02-21T15:10:03;3.80;;;1.20;;
19107;SDS011;9686;48.832;9.126;2023-02-21T15:12:30;4.27;;;1.60;;
19107;SDS011;9686;48.832;9.126;2023-02-21T15:15:05;3.93;;;1.67;;
19107;SDS011;9686;48.832;9.126;2023-02-21T15:17:38;6.90;;;1.80;;
19107;SDS011;9686;48.832;9.126;2023-02-21T15:20:14;3.03;;;1.83;;
19107;SDS011;9686;48.832;9.126;2023-02-21T15:22:40;1.83;;;1.47;;
19107;SDS011;9686;48.832;9.126;2023-02-21T15:27:32;2.63;;;1.43;;
19107;SDS011;9686;48.832;9.126;2023-02-21T15:32:38;2.40;;;1.20;;
19107;SDS011;9686;48.832;9.126;2023-02-21T15:35:04;4.70;;;1.67;;
19107;SDS011;9686;48.832;9.126;2023-02-21T15:37:34;5.23;;;1.57;;
19107;SDS011;9686;48.832;9.126;2023-02-21T15:40:11;2.10;;;1.30;;
19107;SDS011;9686;48.832;9.126;2023-02-21T15:42:41;3.37;;;1.60;;
19107;SDS011;9686;48.832;9.126;2023-02-21T15:45:31;5.13;;;2.13;;
19107;SDS011;9686;48.832;9.126;2023-02-21T15:48:00;3.77;;;2.17;;
19107;SDS011;9686;48.832;9.126;2023-02-21T15:50:37;4.13;;;1.80;;
19107;SDS011;9686;48.832;9.126;2023-02-21T15:53:12;3.20;;;1.70;;
19107;SDS011;9686;48.832;9.126;2023-02-21T15:55:45;3.27;;;1.67;;
19107;SDS011;9686;48.832;9.126;2023-02-21T15:58:14;4.83;;;1.90;;
19107;SDS011;9686;48.832;9.126;2023-02-21T16:00:44;3.70;;;1.57;;
19107;SDS011;9686;48.832;9.126;2023-02-21T16:06:16;4.73;;;1.77;;
19107;SDS011;9686;48.832;9.126;2023-02-21T16:08:50;2.13;;;1.60;;
19107;SDS011;9686;48.832;9.126;2023-02-21T16:11:38;4.07;;;1.93;;
19107;SDS011;9686;48.832;9.126;2023-02-21T16:14:17;2.80;;;1.57;;
19107;SDS011;9686;48.832;9.126;2023-02-21T16:16:46;2.27;;;1.63;;
19107;SDS011;9686;48.832;9.126;2023-02-21T16:19:17;4.70;;;1.60;;
19107;SDS011;9686;48.832;9.126;2023-02-21T16:21:44;2.53;;;1.50;;
19107;SDS011;9686;48.832;9.126;2023-02-21T16:24:13;8.13;;;2.17;;
19107;SDS011;9686;48.832;9.126;2023-02-21T16:27:08;2.47;;;1.70;;
19107;SDS011;9686;48.832;9.126;2023-02-21T16:29:36;3.00;;;1.87;;
19107;SDS011;9686;48.832;9.126;2023-02-21T16:32:01;1.97;;;1.30;;
19107;SDS011;9686;48.832;9.126;2023-02-21T16:34:28;9.57;;;1.70;;
19107;SDS011;9686;48.832;9.126;2023-02-21T16:37:05;7.77;;;1.70;;
19107;SDS011;9686;48.832;9.126;2023-02-21T16:39:35;7.37;;;1.70;;
19107;SDS011;9686;48.832;9.126;2023-02-21T16:42:00;7.63;;;1.70;;
19107;SDS011;9686;48.832;9.126;2023-02-21T16:44:25;4.87;;;1.57;;
19107;SDS011;9686;48.832;9.126;2023-02-21T16:46:51;5.10;;;2.30;;
19107;SDS011;9686;48.832;9.126;2023-02-21T16:49:16;7.30;;;2.37;;
19107;SDS011;9686;48.832;9.126;2023-02-21T16:51:42;8.43;;;2.33;;
19107;SDS011;9686;48.832;9.126;2023-02-21T16:54:08;6.90;;;2.90;;
19107;SDS011;9686;48.832;9.126;2023-02-21T16:56:35;4.33;;;1.87;;
19107;SDS011;9686;48.832;9.126;2023-02-21T16:59:08;4.03;;;2.03;;
19107;SDS011;9686;48.832;9.126;2023-02-21T17:01:36;5.03;;;2.57;;
19107;SDS011;9686;48.832;9.126;2023-02-21T17:04:02;3.17;;;1.90;;
19107;SDS011;9686;48.832;9.126;2023-02-21T17:06:29;5.93;;;2.00;;
19107;SDS011;9686;48.832;9.126;2023-02-21T17:08:55;6.07;;;2.57;;
19107;SDS011;9686;48.832;9.126;2023-02-21T17:11:22;4.40;;;1.80;;
19107;SDS011;9686;48.832;9.126;2023-02-21T17:13:49;3.33;;;1.63;;
19107;SDS011;9686;48.832;9.126;2023-02-21T17:16:14;3.93;;;1.70;;
19107;SDS011;9686;48.832;9.126;2023-02-21T17:18:40;5.70;;;2.20;;
19107;SDS011;9686;48.832;9.126;2023-02-21T17:21:07;4.43;;;2.17;;
19107;SDS011;9686;48.832;9.126;2023-02-21T17:23:32;3.77;;;2.30;;
19107;SDS011;9686;48.832;9.126;2023-02-21T17:25:58;4.40;;;1.93;;
19107;SDS011;9686;48.832;9.126;2023-02-21T17:28:23;4.57;;;1.70;;
19107;SDS011;9686;48.832;9.126;2023-02-21T17:30:48;3.87;;;1.93;;
19107;SDS011;9686;48.832;9.126;2023-02-21T17:33:14;3.37;;;1.90;;
19107;SDS011;9686;48.832;9.126;2023-02-21T17:35:39;4.27;;;2.57;;
19107;SDS011;9686;48.832;9.126;2023-02-21T17:38:05;5.00;;;2.57;;
19107;SDS011;9686;48.832;9.126;2023-02-21T17:40:31;4.37;;;2.17;;
19107;SDS011;9686;48.832;9.126;2023-02-21T17:42:56;4.33;;;2.23;;
19107;SDS011;9686;48.832;9.126;2023-02-21T17:45:22;3.37;;;1.83;;
19107;SDS011;9686;48.832;9.126;2023-02-21T17:47:48;3.27;;;2.13;;
19107;SDS011;9686;48.832;9.126;2023-02-21T17:50:14;2.30;;;2.00;;
19107;SDS011;9686;48.832;9.126;2023-02-21T17:52:40;6.00;;;2.40;;
19107;SDS011;9686;48.832;9.126;2023-02-21T17:55:06;7.23;;;2.30;;
19107;SDS011;9686;48.832;9.126;2023-02-21T17:57:36;4.03;;;2.13;;
19107;SDS011;9686;48.832;9.126;2023-02-21T18:00:05;5.27;;;2.57;;
19107;SDS011;9686;48.832;9.126;2023-02-21T18:02:34;2.77;;;2.17;;
19107;SDS011;9686;48.832;9.126;2023-02-21T18:05:00;2.77;;;2.03;;
19107;SDS011;9686;48.832;9.126;2023-02-21T18:07:25;4.77;;;2.40;;
19107;SDS011;9686;48.832;9.126;2023-02-21T18:09:55;7.27;;;4.43;;
19107;SDS011;9686;48.832;9.126;2023-02-21T18:12:21;7.87;;;2.80;;
19107;SDS011;9686;48.832;9.126;2023-02-21T18:14:46;9.93;;;4.07;;
19107;SDS011;9686;48.832;9.126;2023-02-21T18:17:12;10.40;;;4.00;;
19107;SDS011;9686;48.832;9.126;2023-02-21T18:19:37;7.93;;;4.00;;
19107;SDS011;9686;48.832;9.126;2023-02-21T18:22:02;7.23;;;3.53;;